Time;durP1;ratioP1;P1;durP2;ratioP2;P2;SDS_P1;SDS_P2;PMS_P1;PMS_P2;Temp;Humidity;BMP_temperature;BMP_pressure;BME280_temperature;BME280_humidity;BME280_pressure;Samples;Min_cycle;Max_cycle;Signal;HPM_P1;HPM_P2
2023/12/17 00:01:25;;;;;;;0.20;0.20;;;10.10;99.90;;;;;;4965962;28;20051;-71
2023/12/17 00:03:50;;;;;;;0.30;0.30;;;10.10;99.90;;;;;;4975426;28;20057;-70
2023/12/17 00:06:16;;;;;;;0.50;0.50;;;10.10;99.90;;;;;;4962517;28;20077;-70
2023/12/17 00:08:43;;;;;;;3.47;1.27;;;10.10;99.90;;;;;;4969814;28;20490;-70
2023/12/17 00:11:09;;;;;;;0.30;0.30;;;10.10;99.90;;;;;;4969532;28;20043;-70
2023/12/17 00:13:35;;;;;;;2.83;1.45;;;10.10;99.90;;;;;;4965091;28;20449;-70
2023/12/17 00:16:01;;;;;;;1.25;1.10;;;10.10;99.90;;;;;;4966923;28;20057;-70
2023/12/17 00:18:27;;;;;;;0.10;0.10;;;10.10;99.90;;;;;;4960667;28;20133;-70
2023/12/17 00:20:53;;;;;;;0.52;0.52;;;10.10;99.90;;;;;;4968173;28;20135;-70
2023/12/17 00:23:18;;;;;;;4.28;2.40;;;10.10;99.90;;;;;;4970230;28;20054;-70
2023/12/17 00:25:44;;;;;;;0.40;0.40;;;10.00;99.90;;;;;;4959716;28;20043;-70
2023/12/17 00:28:09;;;;;;;0.10;0.10;;;10.00;99.90;;;;;;4963520;28;20058;-70
2023/12/17 00:30:35;;;;;;;1.40;1.30;;;10.10;99.90;;;;;;4959446;28;20039;-70
2023/12/17 00:33:00;;;;;;;0.10;0.10;;;10.10;99.90;;;;;;4965795;28;20046;-70
2023/12/17 00:35:26;;;;;;;0.10;0.10;;;10.10;99.90;;;;;;4963156;28;20137;-71
2023/12/17 00:37:51;;;;;;;0.52;0.52;;;10.00;99.90;;;;;;4970191;28;20473;-70
2023/12/17 00:40:17;;;;;;;0.10;0.10;;;10.00;99.90;;;;;;4960888;28;20051;-70
2023/12/17 00:42:43;;;;;;;2.28;1.17;;;10.10;99.90;;;;;;4966938;28;20041;-70
2023/12/17 00:45:09;;;;;;;0.10;0.10;;;10.00;99.90;;;;;;4964370;28;20053;-70
2023/12/17 00:47:34;;;;;;;0.13;0.13;;;10.10;99.90;;;;;;4962158;28;20153;-70
2023/12/17 00:50:00;;;;;;;3.30;1.35;;;10.10;99.90;;;;;;4975408;28;20039;-70
2023/12/17 00:52:26;;;;;;;0.15;0.15;;;10.10;99.90;;;;;;4958140;28;20047;-70
2023/12/17 00:54:51;;;;;;;0.40;0.40;;;10.10;99.90;;;;;;4962988;28;20461;-70
2023/12/17 00:57:17;;;;;;;1.65;1.55;;;10.10;99.90;;;;;;4965029;28;20047;-70
2023/12/17 00:59:43;;;;;;;0.70;0.70;;;10.10;99.90;;;;;;4968306;28;20495;-70
2023/12/17 01:02:09;;;;;;;0.10;0.10;;;10.10;99.90;;;;;;4968780;28;20082;-70
2023/12/17 01:04:34;;;;;;;0.00;0.00;;;10.10;99.90;;;;;;4960802;28;20043;-70
2023/12/17 01:07:00;;;;;;;0.20;0.20;;;10.10;99.90;;;;;;4972045;28;20178;-70
2023/12/17 01:09:25;;;;;;;0.10;0.10;;;10.10;99.90;;;;;;4968557;28;20062;-70
2023/12/17 01:11:51;;;;;;;0.13;0.13;;;10.10;99.90;;;;;;4963686;28;20083;-70
2023/12/17 01:14:17;;;;;;;0.10;0.10;;;10.10;99.90;;;;;;4959623;28;20051;-70
2023/12/17 01:16:42;;;;;;;0.10;0.10;;;10.10;99.90;;;;;;4973579;28;20093;-70
2023/12/17 01:19:08;;;;;;;1.20;1.10;;;10.10;99.90;;;;;;4974373;28;20509;-70
2023/12/17 01:21:33;;;;;;;0.10;0.10;;;10.10;99.90;;;;;;4963334;28;20042;-69
2023/12/17 01:23:59;;;;;;;0.10;0.10;;;10.10;99.90;;;;;;4973205;28;20047;-70
2023/12/17 01:26:26;;;;;;;0.13;0.13;;;10.10;99.90;;;;;;4969695;28;20442;-70
2023/12/17 01:28:55;;;;;;;0.00;0.00;;;10.10;99.90;;;;;;4968084;28;20083;-69
2023/12/17 01:31:21;;;;;;;0.17;0.17;;;10.10;99.90;;;;;;4976450;28;20039;-69
2023/12/17 01:33:46;;;;;;;0.10;0.10;;;10.10;99.90;;;;;;4972245;28;20560;-70
2023/12/17 01:36:12;;;;;;;0.20;0.20;;;10.10;99.90;;;;;;4960148;28;20046;-70
2023/12/17 01:38:38;;;;;;;0.98;0.98;;;10.00;99.90;;;;;;4966200;28;20062;-70
2023/12/17 01:41:04;;;;;;;1.45;0.65;;;10.10;99.90;;;;;;4969117;28;20051;-70
2023/12/17 01:43:30;;;;;;;0.28;0.28;;;10.10;99.90;;;;;;4968126;28;20042;-70
2023/12/17 01:45:55;;;;;;;0.10;0.10;;;10.10;99.90;;;;;;4964790;28;20049;-69
2023/12/17 01:48:22;;;;;;;0.10;0.10;;;10.10;99.90;;;;;;4960888;28;20126;-69
2023/12/17 01:50:49;;;;;;;0.08;0.08;;;10.00;99.90;;;;;;4968809;28;20035;-69
2023/12/17 01:53:16;;;;;;;0.10;0.10;;;10.10;99.90;;;;;;4977559;28;20402;-70
2023/12/17 01:55:43;;;;;;;0.20;0.20;;;10.10;99.90;;;;;;4962902;28;20049;-70
2023/12/17 01:58:09;;;;;;;0.10;0.10;;;10.00;99.90;;;;;;4963418;28;20046;-69
2023/12/17 02:00:36;;;;;;;0.20;0.20;;;10.00;99.90;;;;;;4975180;28;20039;-69
2023/12/17 02:03:03;;;;;;;0.35;0.35;;;10.00;99.90;;;;;;4963295;28;20066;-69
2023/12/17 02:05:38;;;;;;;0.68;0.68;;;10.00;99.90;;;;;;4967173;28;20058;-69
2023/12/17 02:08:04;;;;;;;0.17;0.17;;;10.00;99.90;;;;;;4967125;28;20051;-69
2023/12/17 02:10:30;;;;;;;0.30;0.30;;;9.90;99.90;;;;;;4967956;28;20042;-69
2023/12/17 02:12:59;;;;;;;0.10;0.10;;;10.00;99.90;;;;;;4971041;28;20414;-69
2023/12/17 02:15:25;;;;;;;0.10;0.10;;;10.00;99.90;;;;;;4979302;28;20406;-69
2023/12/17 02:17:51;;;;;;;0.17;0.17;;;9.90;99.90;;;;;;4973736;28;20043;-69
2023/12/17 02:20:16;;;;;;;0.10;0.10;;;9.90;99.90;;;;;;4980639;28;20046;-69
2023/12/17 02:22:44;;;;;;;0.10;0.10;;;9.90;99.90;;;;;;4964482;28;20492;-69
2023/12/17 02:25:09;;;;;;;4.30;0.95;;;9.90;99.90;;;;;;4969452;28;20054;-69
2023/12/17 02:27:35;;;;;;;0.20;0.20;;;9.90;99.90;;;;;;4970245;28;20394;-69
2023/12/17 02:30:02;;;;;;;0.10;0.10;;;9.90;99.90;;;;;;4970609;28;20039;-69
2023/12/17 02:32:28;;;;;;;0.10;0.10;;;9.90;99.90;;;;;;4966363;28;20080;-69
2023/12/17 02:34:53;;;;;;;0.10;0.10;;;9.90;99.90;;;;;;4964635;28;20047;-69
2023/12/17 02:37:19;;;;;;;0.20;0.20;;;10.00;99.90;;;;;;4971793;28;20062;-68
2023/12/17 02:39:45;;;;;;;0.25;0.25;;;10.00;99.90;;;;;;4963374;28;20658;-69
2023/12/17 02:42:11;;;;;;;0.10;0.10;;;10.00;99.90;;;;;;4967184;28;20039;-69
2023/12/17 02:44:36;;;;;;;0.20;0.20;;;10.00;99.90;;;;;;4965724;28;20120;-69
2023/12/17 02:47:02;;;;;;;0.10;0.10;;;10.00;99.90;;;;;;4969263;28;20486;-69
2023/12/17 02:49:28;;;;;;;0.10;0.10;;;10.00;99.90;;;;;;4975922;28;20097;-69
2023/12/17 02:51:57;;;;;;;0.20;0.20;;;10.00;99.90;;;;;;4972653;28;20082;-69
2023/12/17 02:54:23;;;;;;;0.75;0.75;;;9.90;99.90;;;;;;4963444;28;20039;-69
2023/12/17 02:56:51;;;;;;;0.10;0.10;;;10.00;99.90;;;;;;4962608;28;20443;-69
2023/12/17 02:59:17;;;;;;;0.17;0.17;;;10.00;99.90;;;;;;4971398;28;20059;-69
2023/12/17 03:01:43;;;;;;;0.10;0.10;;;9.90;99.90;;;;;;4971927;28;20070;-69
2023/12/17 03:04:10;;;;;;;0.10;0.10;;;9.90;99.90;;;;;;4961648;28;20059;-69
2023/12/17 03:06:37;;;;;;;0.38;0.38;;;10.00;99.90;;;;;;4967201;28;20486;-69
2023/12/17 03:09:03;;;;;;;1.80;0.80;;;9.90;99.90;;;;;;4953740;28;20118;-69
2023/12/17 03:11:29;;;;;;;0.00;0.00;;;9.90;99.90;;;;;;4970226;28;20462;-69
2023/12/17 03:13:54;;;;;;;0.65;0.65;;;9.90;99.90;;;;;;4965501;28;20050;-68
2023/12/17 03:16:20;;;;;;;0.20;0.20;;;9.90;99.90;;;;;;4966066;28;20046;-69
2023/12/17 03:18:46;;;;;;;0.05;0.05;;;9.90;99.90;;;;;;4973911;28;20609;-69
2023/12/17 03:21:12;;;;;;;3.08;1.08;;;9.90;99.90;;;;;;4977208;28;20118;-69
2023/12/17 03:23:38;;;;;;;0.32;0.32;;;9.90;99.90;;;;;;4964704;28;20035;-69
2023/12/17 03:26:04;;;;;;;0.20;0.20;;;9.80;99.90;;;;;;4964710;28;20475;-69
2023/12/17 03:28:29;;;;;;;0.15;0.15;;;9.80;99.90;;;;;;4971000;28;20042;-69
2023/12/17 03:30:55;;;;;;;0.90;0.90;;;9.80;99.90;;;;;;4973253;28;20039;-69
2023/12/17 03:33:21;;;;;;;0.00;0.00;;;9.80;99.90;;;;;;4969095;28;20102;-69
2023/12/17 03:35:47;;;;;;;0.00;0.00;;;9.80;99.90;;;;;;4966796;28;20050;-69
2023/12/17 03:38:13;;;;;;;0.17;0.17;;;9.80;99.90;;;;;;4971200;28;20073;-69
2023/12/17 03:40:39;;;;;;;0.40;0.40;;;9.80;99.90;;;;;;4974481;28;20047;-69
2023/12/17 03:43:04;;;;;;;0.10;0.10;;;9.80;99.90;;;;;;4960344;28;20106;-69
2023/12/17 03:45:31;;;;;;;0.10;0.10;;;9.80;99.90;;;;;;4967462;28;20118;-69
2023/12/17 03:47:57;;;;;;;1.60;1.50;;;9.80;99.90;;;;;;4961515;28;20126;-69
2023/12/17 03:50:23;;;;;;;0.40;0.40;;;9.70;99.90;;;;;;4968834;28;20050;-69
2023/12/17 03:52:48;;;;;;;1.30;1.10;;;9.70;99.90;;;;;;4960874;28;20039;-69
2023/12/17 03:55:15;;;;;;;0.10;0.10;;;9.70;99.90;;;;;;4969945;28;20054;-69
2023/12/17 03:57:41;;;;;;;0.35;0.35;;;9.70;99.90;;;;;;4966578;28;20505;-69
2023/12/17 04:00:10;;;;;;;0.00;0.00;;;9.70;99.90;;;;;;4965657;28;20043;-69
2023/12/17 04:02:35;;;;;;;0.10;0.10;;;9.70;99.90;;;;;;4970823;28;20039;-69
2023/12/17 04:05:01;;;;;;;0.05;0.05;;;9.70;99.90;;;;;;4968411;28;20046;-70
2023/12/17 04:07:28;;;;;;;0.10;0.10;;;9.60;99.90;;;;;;4962554;28;20589;-70
2023/12/17 04:09:53;;;;;;;0.20;0.20;;;9.60;99.90;;;;;;4965637;28;20056;-69
2023/12/17 04:12:19;;;;;;;0.10;0.10;;;9.60;99.90;;;;;;4969590;28;20166;-70
2023/12/17 04:14:45;;;;;;;0.15;0.15;;;9.60;99.90;;;;;;4969492;28;20250;-70
2023/12/17 04:17:10;;;;;;;0.10;0.10;;;9.60;99.90;;;;;;4961325;28;20054;-70
2023/12/17 04:19:36;;;;;;;0.10;0.10;;;9.60;99.90;;;;;;4965413;28;20096;-69
2023/12/17 04:22:01;;;;;;;0.80;0.77;;;9.50;99.90;;;;;;4959292;28;20047;-70
2023/12/17 04:24:27;;;;;;;0.10;0.10;;;9.50;99.90;;;;;;4957789;28;20050;-70
2023/12/17 04:26:52;;;;;;;0.20;0.20;;;9.50;99.90;;;;;;4963370;28;20081;-70
2023/12/17 04:29:19;;;;;;;0.40;0.40;;;9.50;99.90;;;;;;4962387;28;20142;-70
2023/12/17 04:31:45;;;;;;;0.20;0.20;;;9.40;99.90;;;;;;4963712;28;20508;-69
2023/12/17 04:34:11;;;;;;;0.63;0.63;;;9.40;99.90;;;;;;4965002;28;20133;-69
2023/12/17 04:36:40;;;;;;;0.10;0.10;;;9.40;99.90;;;;;;4958209;28;20101;-69
2023/12/17 04:39:06;;;;;;;0.10;0.10;;;9.40;99.90;;;;;;4965421;28;20494;-69
2023/12/17 04:41:33;;;;;;;0.10;0.10;;;9.40;99.90;;;;;;4970938;28;20045;-69
2023/12/17 04:43:59;;;;;;;0.10;0.10;;;9.40;99.90;;;;;;4965451;28;20070;-69
2023/12/17 04:46:25;;;;;;;0.43;0.43;;;9.40;99.90;;;;;;4955778;28;20043;-69
2023/12/17 04:48:50;;;;;;;0.20;0.20;;;9.30;99.90;;;;;;4964212;28;20525;-68
2023/12/17 04:51:16;;;;;;;0.57;0.57;;;9.30;99.90;;;;;;4970936;28;20047;-69
2023/12/17 04:53:42;;;;;;;0.10;0.10;;;9.30;99.90;;;;;;4959363;28;20069;-69
2023/12/17 04:56:08;;;;;;;0.32;0.32;;;9.30;99.90;;;;;;4965151;28;20479;-69
2023/12/17 04:58:34;;;;;;;3.03;0.85;;;9.30;99.90;;;;;;4967948;28;20050;-69
2023/12/17 05:01:00;;;;;;;0.10;0.10;;;9.30;99.90;;;;;;4973935;28;20118;-70
2023/12/17 05:03:25;;;;;;;0.15;0.15;;;9.30;99.90;;;;;;4969593;28;20039;-70
2023/12/17 05:05:51;;;;;;;5.47;2.05;;;9.30;99.90;;;;;;4963648;28;20500;-69
2023/12/17 05:08:20;;;;;;;0.20;0.20;;;9.30;99.90;;;;;;4968560;28;20047;-69
2023/12/17 05:10:46;;;;;;;0.10;0.10;;;9.30;99.90;;;;;;4971279;28;20348;-69
2023/12/17 05:13:12;;;;;;;0.10;0.10;;;9.30;99.90;;;;;;4966400;28;20050;-69
2023/12/17 05:15:37;;;;;;;0.10;0.10;;;9.30;99.90;;;;;;4960583;28;20467;-69
2023/12/17 05:18:03;;;;;;;0.20;0.20;;;9.30;99.90;;;;;;4966479;28;20058;-69
2023/12/17 05:20:29;;;;;;;0.13;0.13;;;9.40;99.90;;;;;;4973132;28;20034;-69
2023/12/17 05:22:54;;;;;;;1.30;1.10;;;9.40;99.90;;;;;;4971229;28;20074;-69
2023/12/17 05:25:21;;;;;;;0.10;0.10;;;9.40;99.90;;;;;;4961515;28;20062;-69
2023/12/17 05:27:46;;;;;;;0.25;0.25;;;9.40;99.90;;;;;;4961350;28;20109;-69
2023/12/17 05:30:12;;;;;;;0.10;0.10;;;9.40;99.90;;;;;;4972246;28;20050;-69
2023/12/17 05:32:38;;;;;;;0.20;0.20;;;9.50;99.90;;;;;;4959978;28;20051;-70
2023/12/17 05:35:04;;;;;;;0.10;0.10;;;9.50;99.90;;;;;;4959333;28;20061;-69
2023/12/17 05:37:30;;;;;;;0.20;0.17;;;9.50;99.90;;;;;;4962534;28;20063;-69
2023/12/17 05:39:55;;;;;;;0.10;0.10;;;9.50;99.90;;;;;;4965194;28;20533;-69
2023/12/17 05:42:21;;;;;;;3.35;1.38;;;9.50;99.90;;;;;;4954904;28;20071;-69
2023/12/17 05:44:47;;;;;;;0.25;0.25;;;9.50;99.90;;;;;;4967565;28;20060;-70
2023/12/17 05:47:12;;;;;;;1.38;1.27;;;9.50;99.90;;;;;;4954344;28;20039;-69
2023/12/17 05:49:39;;;;;;;0.45;0.40;;;9.50;99.90;;;;;;4967620;28;20074;-69
2023/12/17 05:52:05;;;;;;;0.52;0.52;;;9.60;99.90;;;;;;4960222;28;20098;-70
2023/12/17 05:54:31;;;;;;;0.10;0.10;;;9.60;99.90;;;;;;4957336;28;20042;-70
2023/12/17 05:56:56;;;;;;;0.20;0.20;;;9.60;99.90;;;;;;4961468;28;20043;-70
2023/12/17 05:59:22;;;;;;;0.38;0.38;;;9.50;99.90;;;;;;4968618;28;20054;-70
2023/12/17 06:01:47;;;;;;;0.35;0.35;;;9.50;99.90;;;;;;4965614;28;20090;-69
2023/12/17 06:04:13;;;;;;;0.93;0.80;;;9.50;99.90;;;;;;4964059;28;20752;-70
2023/12/17 06:06:38;;;;;;;0.47;0.47;;;9.60;99.90;;;;;;4971733;28;20035;-70
2023/12/17 06:09:04;;;;;;;1.00;1.00;;;9.50;99.90;;;;;;4971625;28;20049;-70
2023/12/17 06:11:30;;;;;;;0.75;0.75;;;9.60;99.90;;;;;;4960929;28;20466;-70
2023/12/17 06:13:55;;;;;;;2.80;1.42;;;9.60;99.90;;;;;;4964165;28;20078;-69
2023/12/17 06:16:21;;;;;;;0.10;0.10;;;9.60;99.90;;;;;;4971471;28;20058;-70
2023/12/17 06:18:49;;;;;;;0.20;0.20;;;9.60;99.90;;;;;;4966598;28;20054;-70
2023/12/17 06:21:25;;;;;;;3.92;2.00;;;9.60;99.90;;;;;;4968122;28;20046;-70
2023/12/17 06:23:57;;;;;;;2.55;1.40;;;9.60;99.90;;;;;;4964034;28;20513;-70
2023/12/17 06:26:26;;;;;;;0.68;0.68;;;9.60;99.90;;;;;;4971097;28;20434;-69
2023/12/17 06:28:51;;;;;;;13.25;2.20;;;9.60;99.90;;;;;;4961880;28;20058;-69
2023/12/17 06:31:17;;;;;;;3.35;1.80;;;9.60;99.90;;;;;;4963323;28;20036;-69
2023/12/17 06:33:43;;;;;;;1.08;1.00;;;9.60;99.90;;;;;;4959879;28;20055;-70
2023/12/17 06:36:09;;;;;;;0.40;0.38;;;9.60;99.90;;;;;;4963018;28;20499;-70
2023/12/17 06:38:34;;;;;;;0.10;0.10;;;9.60;99.90;;;;;;4969433;28;20490;-69
2023/12/17 06:41:00;;;;;;;2.20;1.50;;;9.60;99.90;;;;;;4957669;28;20145;-70
2023/12/17 06:43:26;;;;;;;0.40;0.40;;;9.60;99.90;;;;;;4974026;28;20086;-70
2023/12/17 06:45:51;;;;;;;0.20;0.20;;;9.60;99.90;;;;;;4967222;28;20078;-69
2023/12/17 06:48:18;;;;;;;0.52;0.52;;;9.60;99.90;;;;;;4960459;28;20084;-69
2023/12/17 06:50:43;;;;;;;0.15;0.15;;;9.60;99.90;;;;;;4967323;28;20043;-69
2023/12/17 06:53:10;;;;;;;0.47;0.47;;;9.60;99.90;;;;;;4964643;28;20046;-69
2023/12/17 06:55:35;;;;;;;0.40;0.40;;;9.60;99.90;;;;;;4959126;28;20054;-69
2023/12/17 06:58:01;;;;;;;0.10;0.10;;;9.60;99.90;;;;;;4955999;28;20047;-69
2023/12/17 07:00:27;;;;;;;0.52;0.52;;;9.60;99.90;;;;;;4966074;28;20042;-69
2023/12/17 07:02:53;;;;;;;3.53;2.03;;;9.60;99.90;;;;;;4962059;28;20039;-69
2023/12/17 07:05:18;;;;;;;0.90;0.90;;;9.60;99.90;;;;;;4969410;28;20601;-69
2023/12/17 07:07:45;;;;;;;0.10;0.10;;;9.60;99.90;;;;;;4962094;28;20077;-69
2023/12/17 07:10:12;;;;;;;0.10;0.10;;;9.60;99.90;;;;;;4968745;28;20092;-69
2023/12/17 07:12:38;;;;;;;22.05;6.55;;;9.60;99.90;;;;;;4966509;28;20026;-68
2023/12/17 07:15:04;;;;;;;1.17;0.85;;;9.60;99.90;;;;;;4974429;28;20085;-70
2023/12/17 07:17:30;;;;;;;0.10;0.10;;;9.60;99.90;;;;;;4963673;28;20039;-70
2023/12/17 07:19:55;;;;;;;0.68;0.68;;;9.60;99.90;;;;;;4971414;28;20047;-70
2023/12/17 07:22:22;;;;;;;0.10;0.10;;;9.60;99.90;;;;;;4968569;28;20078;-70
2023/12/17 07:24:49;;;;;;;0.32;0.32;;;9.60;99.90;;;;;;4952621;28;20172;-69
2023/12/17 07:27:14;;;;;;;0.90;0.88;;;9.60;99.90;;;;;;4968990;28;20049;-69
2023/12/17 07:29:40;;;;;;;0.60;0.60;;;9.60;99.90;;;;;;4965058;28;20058;-70
2023/12/17 07:32:06;;;;;;;0.47;0.45;;;9.60;99.90;;;;;;4960916;28;20035;-69
2023/12/17 07:34:31;;;;;;;0.10;0.10;;;9.60;99.90;;;;;;4959695;28;20050;-70
2023/12/17 07:36:57;;;;;;;1.42;1.33;;;9.60;99.90;;;;;;4971015;28;20129;-69
2023/12/17 07:39:22;;;;;;;0.10;0.10;;;9.60;99.90;;;;;;4962120;28;20097;-70
2023/12/17 07:41:48;;;;;;;1.88;0.70;;;9.50;99.90;;;;;;4959811;28;20447;-69
2023/12/17 07:44:13;;;;;;;0.75;0.75;;;9.60;99.90;;;;;;4963316;28;20158;-69
2023/12/17 07:46:39;;;;;;;0.10;0.10;;;9.60;99.90;;;;;;4980966;28;20051;-69
2023/12/17 07:49:05;;;;;;;2.45;1.95;;;9.50;99.90;;;;;;4969369;28;20057;-69
2023/12/17 07:51:32;;;;;;;0.10;0.10;;;9.50;99.90;;;;;;4956686;28;20047;-69
2023/12/17 07:53:57;;;;;;;0.93;0.93;;;9.50;99.90;;;;;;4962621;28;20154;-69
2023/12/17 07:56:23;;;;;;;0.95;0.95;;;9.50;99.90;;;;;;4967974;28;20450;-69
2023/12/17 07:58:48;;;;;;;0.55;0.55;;;9.50;99.90;;;;;;4977845;28;20054;-69
2023/12/17 08:01:14;;;;;;;1.95;1.10;;;9.50;99.90;;;;;;4969042;28;20126;-69
2023/12/17 08:03:39;;;;;;;1.42;1.33;;;9.50;99.90;;;;;;4957350;28;20161;-69
2023/12/17 08:06:05;;;;;;;1.10;1.05;;;9.50;99.90;;;;;;4974629;28;20051;-69
2023/12/17 08:08:31;;;;;;;3.10;1.38;;;9.50;99.90;;;;;;4969987;28;20049;-69
2023/12/17 08:10:56;;;;;;;1.58;1.48;;;9.40;99.90;;;;;;4966978;28;20133;-69
2023/12/17 08:13:22;;;;;;;1.90;1.50;;;9.50;99.90;;;;;;4960590;28;20090;-69
2023/12/17 08:15:48;;;;;;;1.20;0.93;;;9.40;99.90;;;;;;4962555;28;20579;-69
2023/12/17 08:18:14;;;;;;;1.40;1.30;;;9.40;99.90;;;;;;4967565;28;20402;-69
2023/12/17 08:20:40;;;;;;;4.47;1.02;;;9.40;99.90;;;;;;4965720;28;20137;-69
2023/12/17 08:23:06;;;;;;;0.52;0.52;;;9.40;99.90;;;;;;4957384;28;20124;-68
2023/12/17 08:25:38;;;;;;;1.50;1.15;;;9.30;99.90;;;;;;4967657;28;20105;-69
2023/12/17 08:28:04;;;;;;;0.65;0.63;;;9.40;99.90;;;;;;4957021;28;20059;-69
2023/12/17 08:30:29;;;;;;;0.15;0.15;;;9.30;99.90;;;;;;4967614;28;20129;-69
2023/12/17 08:32:55;;;;;;;0.52;0.52;;;9.40;99.90;;;;;;4954910;28;20575;-69
2023/12/17 08:35:20;;;;;;;16.10;1.40;;;9.40;99.90;;;;;;4961210;28;20393;-69
2023/12/17 08:37:46;;;;;;;0.50;0.50;;;9.30;99.90;;;;;;4964517;28;20101;-69
2023/12/17 08:40:12;;;;;;;0.80;0.80;;;9.30;99.90;;;;;;4963602;28;20055;-68
2023/12/17 08:42:37;;;;;;;0.20;0.20;;;9.40;99.90;;;;;;4960352;28;20556;-69
2023/12/17 08:45:03;;;;;;;30.08;3.35;;;9.40;99.90;;;;;;4965275;28;20055;-69
2023/12/17 08:47:29;;;;;;;1.77;1.67;;;9.30;99.90;;;;;;4964816;28;20528;-70
2023/12/17 08:49:56;;;;;;;0.55;0.55;;;9.30;99.90;;;;;;4963916;28;20096;-70
2023/12/17 08:52:21;;;;;;;3.00;1.95;;;9.40;99.90;;;;;;4964671;28;20442;-70
2023/12/17 08:54:47;;;;;;;0.40;0.40;;;9.40;99.90;;;;;;4964903;28;20107;-69
2023/12/17 08:57:13;;;;;;;0.50;0.50;;;9.40;99.90;;;;;;4961355;28;20063;-70
2023/12/17 08:59:43;;;;;;;0.10;0.10;;;9.40;99.90;;;;;;4963195;28;20118;-69
2023/12/17 09:02:08;;;;;;;0.10;0.10;;;9.40;99.90;;;;;;4966506;28;20430;-70
2023/12/17 09:04:34;;;;;;;1.08;1.08;;;9.50;99.90;;;;;;4961893;28;20035;-70
2023/12/17 09:06:59;;;;;;;0.10;0.10;;;9.50;99.90;;;;;;4981990;28;20961;-70
2023/12/17 09:09:25;;;;;;;0.22;0.22;;;9.60;99.90;;;;;;4958127;28;20043;-69
2023/12/17 09:11:50;;;;;;;0.95;0.95;;;9.60;99.90;;;;;;4963350;28;20043;-69
2023/12/17 09:14:16;;;;;;;1.35;1.35;;;9.60;99.90;;;;;;4970441;28;20410;-70
2023/12/17 09:16:42;;;;;;;0.73;0.73;;;9.60;99.90;;;;;;4961812;28;20050;-70
2023/12/17 09:19:07;;;;;;;7.82;2.92;;;9.60;99.90;;;;;;4962293;28;20046;-70
2023/12/17 09:21:33;;;;;;;0.10;0.10;;;9.70;99.90;;;;;;4964147;28;20046;-70
2023/12/17 09:23:58;;;;;;;1.02;1.02;;;9.60;99.90;;;;;;4966195;28;20503;-70
2023/12/17 09:26:24;;;;;;;0.40;0.40;;;9.70;99.90;;;;;;4976869;28;20427;-70
2023/12/17 09:28:50;;;;;;;2.55;1.95;;;9.70;99.90;;;;;;4956601;28;20057;-70
2023/12/17 09:31:15;;;;;;;0.40;0.40;;;9.70;99.90;;;;;;4958127;28;20039;-70
2023/12/17 09:33:41;;;;;;;0.20;0.20;;;9.70;99.90;;;;;;4961532;28;20058;-70
2023/12/17 09:36:07;;;;;;;0.30;0.30;;;9.70;99.90;;;;;;4962680;28;20058;-69
2023/12/17 09:38:33;;;;;;;4.03;3.10;;;9.70;99.90;;;;;;4970308;28;20516;-70
2023/12/17 09:40:59;;;;;;;3.28;1.52;;;9.70;99.90;;;;;;4960759;28;20086;-70
2023/12/17 09:43:25;;;;;;;0.38;0.38;;;9.70;99.90;;;;;;4961886;28;20047;-69
2023/12/17 09:45:51;;;;;;;0.20;0.20;;;9.80;99.90;;;;;;4967076;28;20051;-69
2023/12/17 09:48:20;;;;;;;0.60;0.60;;;9.80;99.90;;;;;;4956997;28;20050;-69
2023/12/17 09:50:45;;;;;;;0.15;0.15;;;9.70;99.90;;;;;;4963735;28;20101;-69
2023/12/17 09:53:11;;;;;;;0.77;0.77;;;9.80;99.90;;;;;;4960729;28;20402;-69
2023/12/17 09:55:40;;;;;;;1.70;1.60;;;9.80;99.90;;;;;;4978250;28;20059;-69
2023/12/17 09:58:06;;;;;;;0.30;0.30;;;9.80;99.90;;;;;;4962256;28;20050;-69
2023/12/17 10:00:32;;;;;;;0.40;0.40;;;9.80;99.90;;;;;;4961976;28;20466;-69
2023/12/17 10:03:04;;;;;;;0.35;0.35;;;9.80;99.90;;;;;;4971613;28;20100;-69
2023/12/17 10:05:31;;;;;;;1.55;1.45;;;9.80;99.90;;;;;;4956087;28;20051;-70
2023/12/17 10:07:56;;;;;;;4.03;2.30;;;9.80;99.90;;;;;;4964201;28;20062;-70
2023/12/17 10:10:22;;;;;;;2.40;1.90;;;9.80;99.90;;;;;;4967372;28;20038;-69
2023/12/17 10:12:48;;;;;;;2.60;1.63;;;9.80;99.90;;;;;;4956094;28;20054;-70
2023/12/17 10:15:13;;;;;;;0.63;0.63;;;9.80;99.90;;;;;;4959324;28;20051;-69
2023/12/17 10:17:40;;;;;;;0.45;0.45;;;9.80;99.90;;;;;;4963815;28;20054;-70
2023/12/17 10:20:07;;;;;;;0.10;0.10;;;9.80;99.90;;;;;;4955182;28;20534;-70
2023/12/17 10:22:32;;;;;;;0.35;0.35;;;9.80;99.90;;;;;;4966689;28;20043;-70
2023/12/17 10:24:58;;;;;;;0.10;0.10;;;9.80;99.90;;;;;;4961293;28;20043;-70
2023/12/17 10:27:23;;;;;;;6.53;2.53;;;9.70;99.90;;;;;;4959124;28;20038;-70
2023/12/17 10:29:51;;;;;;;0.50;0.50;;;9.70;99.90;;;;;;4963876;28;20558;-69
2023/12/17 10:32:24;;;;;;;1.13;1.13;;;9.70;99.90;;;;;;4959905;28;20042;-70
2023/12/17 10:34:53;;;;;;;22.50;2.00;;;9.80;99.90;;;;;;4972721;28;20120;-69
2023/12/17 10:37:23;;;;;;;0.85;0.55;;;9.80;99.90;;;;;;4972717;28;20055;-70
2023/12/17 10:39:49;;;;;;;0.10;0.10;;;9.70;99.90;;;;;;4962802;28;20595;-70
2023/12/17 10:42:19;;;;;;;0.17;0.17;;;9.70;99.90;;;;;;4960977;28;20058;-70
2023/12/17 10:44:50;;;;;;;1.33;1.00;;;9.70;99.90;;;;;;4964552;28;20050;-70
2023/12/17 10:47:20;;;;;;;0.65;0.65;;;9.70;99.90;;;;;;4969317;28;20039;-70
2023/12/17 10:49:46;;;;;;;0.20;0.20;;;9.70;99.90;;;;;;4969627;28;20051;-69
2023/12/17 10:52:12;;;;;;;29.85;1.65;;;9.80;99.90;;;;;;4967685;28;20038;-69
2023/12/17 10:54:39;;;;;;;0.40;0.40;;;9.80;99.90;;;;;;4972317;28;20045;-69
2023/12/17 10:57:09;;;;;;;1.60;1.50;;;9.80;99.90;;;;;;4961745;28;20046;-69
2023/12/17 10:59:36;;;;;;;0.98;0.80;;;9.80;99.90;;;;;;4967863;28;20054;-70
2023/12/17 11:02:03;;;;;;;0.52;0.52;;;9.80;99.90;;;;;;4970540;28;20046;-69
2023/12/17 11:04:29;;;;;;;2.03;1.92;;;9.80;99.90;;;;;;4959666;28;20051;-69
2023/12/17 11:06:55;;;;;;;3.97;2.55;;;9.80;99.90;;;;;;4977185;28;20125;-70
2023/12/17 11:09:20;;;;;;;0.10;0.10;;;9.80;99.90;;;;;;4972001;28;20070;-70
2023/12/17 11:11:47;;;;;;;0.38;0.38;;;9.80;99.90;;;;;;4969648;28;20046;-70
2023/12/17 11:14:13;;;;;;;0.38;0.38;;;9.80;99.90;;;;;;4963401;28;20509;-70
2023/12/17 11:16:39;;;;;;;0.55;0.55;;;9.80;99.90;;;;;;4971816;28;20117;-69
2023/12/17 11:19:05;;;;;;;1.85;1.48;;;9.80;99.90;;;;;;4969446;28;20042;-69
2023/12/17 11:21:32;;;;;;;0.45;0.45;;;9.80;99.90;;;;;;4956582;28;20047;-69
2023/12/17 11:23:59;;;;;;;0.20;0.20;;;9.80;99.90;;;;;;4968377;28;20117;-70
2023/12/17 11:26:24;;;;;;;0.63;0.63;;;9.80;99.90;;;;;;4970996;28;20134;-69
2023/12/17 11:28:52;;;;;;;0.40;0.40;;;9.80;99.90;;;;;;4961683;28;20747;-69
2023/12/17 11:31:18;;;;;;;0.47;0.47;;;9.80;99.90;;;;;;4959350;28;20565;-70
2023/12/17 11:33:44;;;;;;;0.80;0.80;;;9.80;99.90;;;;;;4968616;28;20051;-70
2023/12/17 11:36:11;;;;;;;1.67;1.58;;;9.80;99.90;;;;;;4960194;28;20054;-70
2023/12/17 11:38:37;;;;;;;1.08;1.00;;;9.80;99.90;;;;;;4959155;28;20541;-70
2023/12/17 11:41:04;;;;;;;2.03;1.13;;;9.80;99.90;;;;;;4965325;28;20043;-69
2023/12/17 11:43:32;;;;;;;1.33;1.23;;;9.80;99.90;;;;;;4967310;28;20058;-69
2023/12/17 11:45:58;;;;;;;0.30;0.30;;;9.80;99.90;;;;;;4961267;28;20050;-69
2023/12/17 11:48:26;;;;;;;11.57;3.30;;;9.80;99.90;;;;;;4961284;28;20051;-69
2023/12/17 11:50:57;;;;;;;0.50;0.32;;;9.90;99.90;;;;;;4970212;28;20047;-69
2023/12/17 11:53:25;;;;;;;1.85;1.38;;;10.00;99.90;;;;;;4968004;28;20038;-69
2023/12/17 11:55:59;;;;;;;0.43;0.43;;;10.10;99.90;;;;;;4960450;28;20055;-69
2023/12/17 11:58:25;;;;;;;0.38;0.38;;;10.10;99.90;;;;;;4971207;28;20068;-69
2023/12/17 12:01:05;;;;;;;0.70;0.70;;;10.10;99.90;;;;;;4970121;28;20046;-70
2023/12/17 12:03:32;;;;;;;1.65;0.95;;;10.10;99.90;;;;;;4958722;28;20094;-70
2023/12/17 12:06:09;;;;;;;1.15;1.05;;;10.10;99.90;;;;;;4967787;28;20055;-69
2023/12/17 12:08:42;;;;;;;0.10;0.10;;;10.20;99.90;;;;;;4997494;28;20054;-69
2023/12/17 12:11:09;;;;;;;1.85;1.73;;;10.40;99.90;;;;;;4965719;28;20050;-69
2023/12/17 12:13:41;;;;;;;0.32;0.32;;;10.40;99.90;;;;;;4974369;28;20061;-69
2023/12/17 12:16:17;;;;;;;1.85;0.85;;;10.50;99.90;;;;;;4966722;28;20094;-69
2023/12/17 12:18:43;;;;;;;0.28;0.28;;;10.50;99.90;;;;;;4968918;28;20038;-69
2023/12/17 12:21:19;;;;;;;1.65;1.33;;;10.60;99.90;;;;;;4959240;28;20486;-69
2023/12/17 12:23:52;;;;;;;0.85;0.85;;;10.50;99.90;;;;;;4968002;28;20082;-69
2023/12/17 12:26:18;;;;;;;0.57;0.43;;;10.60;99.90;;;;;;4961683;28;21086;-69
2023/12/17 12:28:50;;;;;;;0.10;0.10;;;10.60;99.90;;;;;;4961945;28;20398;-69
2023/12/17 12:31:16;;;;;;;3.67;2.40;;;10.50;99.90;;;;;;4967025;28;20517;-69
2023/12/17 12:33:52;;;;;;;1.85;0.85;;;10.60;99.90;;;;;;4973414;28;20047;-69
2023/12/17 12:36:17;;;;;;;1.05;1.05;;;10.60;99.90;;;;;;4961296;28;20054;-69
2023/12/17 12:38:43;;;;;;;0.40;0.40;;;10.70;99.90;;;;;;4967914;28;20058;-70
2023/12/17 12:41:12;;;;;;;0.17;0.17;;;10.70;99.90;;;;;;4957201;28;20121;-69
2023/12/17 12:43:41;;;;;;;0.90;0.90;;;10.80;99.90;;;;;;4967653;28;20055;-69
2023/12/17 12:46:07;;;;;;;0.90;0.90;;;10.80;99.90;;;;;;4963148;28;20039;-69
2023/12/17 12:48:33;;;;;;;0.30;0.30;;;10.80;99.90;;;;;;4962889;28;20422;-69